Portada
METAR-TAF:

METAR-TAF

Aeroports :

Honiara, Guadalcanal, Illes Salomó

latitud: 09-25S, longitud: 160-03E, altitud: 8 m

Observació

L'informe es va fer fa 1 hora i 0 minuts, a les 21:00 UTC
Vent calma
Temperatura 27°C
Humitat 84%
Pressió 1009 hPa
Visibilitat 10 km o més
Escasses núvols a una alçada de 1600 ft

METAR: AGGH 192100Z 00000KT 9999 FEW016 27/24 Q1009

Hora: 09:00 (22:00 UTC)

Pronòstic

L'informe es va fer fa 4 hores i 50 minuts, a les 17:10 UTC
Pronòstic vàlid del 19 a les 18 UTC al 20 a les 18 UTC
Vent 10 kt del Est/Nord-Est
Visibilitat 10 km o més
Núvols disperses a una alçada de 1800 ft
Probabilitat 40%
entre IN i TE UTC
Visibilitat: 1007 m
Cel ennuvolat a una alçada de 1500 ft
Escasses núvols a una alçada de 1600 ft, Cumulonimbus.

TAF: AGGH 191710Z 1918/2018 07010KT 9999 SCT018 PROB40 INTER 1923/2006 5000 TSSH BKN015 FEW016CB T 23 26 31 28 Q 1007 1009 1009 1007

Observacions i pronòstics meteorològics de més de 4000 aeroports (METAR i TAF).

Les estacions disponibles són els punts grocs i vermells al mapa.

Posi el ratolí al punt desitjat per veure el nom de l'estació.

Feu clic per veure les observacions i els pronòstics meteorològics.

Per canviar el mapa: feu clic els botons verds amb una creu de color negre per apropar; al botó verd amb un guió per allunyar la imatge; o en les fletxes verdes per a mapes adjacents.


METAR-TAF: